createdAt,value
2023-03-01T00:02:03.676Z,-2.41
2023-03-01T00:04:30.072Z,-2.51
2023-03-01T00:06:56.424Z,-2.59
2023-03-01T00:09:23.032Z,-2.70
2023-03-01T00:11:49.840Z,-2.70
2023-03-01T00:14:18.355Z,-2.72
2023-03-01T00:16:46.634Z,-2.68
2023-03-01T00:19:18.275Z,-2.86
2023-03-01T00:21:44.694Z,-2.90
2023-03-01T00:24:11.445Z,-2.93
2023-03-01T00:26:37.912Z,-2.91
2023-03-01T00:29:04.605Z,-2.91
2023-03-01T00:31:33.100Z,-2.90
2023-03-01T00:34:02.514Z,-2.93
2023-03-01T00:36:32.034Z,-2.86
2023-03-01T00:38:58.822Z,-2.91
2023-03-01T00:41:27.463Z,-2.94
2023-03-01T00:43:54.570Z,-3.05
2023-03-01T00:46:23.353Z,-2.92
2023-03-01T00:48:50.426Z,-2.95
2023-03-01T00:51:22.839Z,-3.01
2023-03-01T00:53:52.307Z,-3.00
2023-03-01T00:56:18.828Z,-3.07
2023-03-01T00:58:45.274Z,-3.21
2023-03-01T01:01:18.142Z,-3.11
2023-03-01T01:03:53.433Z,-3.09
2023-03-01T01:06:26.171Z,-3.11
2023-03-01T01:08:54.253Z,-3.07
2023-03-01T01:11:21.835Z,-3.02
2023-03-01T01:13:49.066Z,-3.07
2023-03-01T01:16:17.985Z,-3.11
2023-03-01T01:18:45.018Z,-3.06
2023-03-01T01:21:14.998Z,-3.10
2023-03-01T01:23:42.959Z,-3.24
2023-03-01T01:26:12.689Z,-3.25
2023-03-01T01:28:39.607Z,-3.30
2023-03-01T01:31:06.949Z,-3.20
2023-03-01T01:33:33.960Z,-3.15
2023-03-01T01:36:00.375Z,-3.25
2023-03-01T01:38:26.812Z,-3.43
2023-03-01T01:40:53.375Z,-3.40
2023-03-01T01:43:35.860Z,-3.41
2023-03-01T01:46:04.071Z,-3.47
2023-03-01T01:48:41.256Z,-3.44
2023-03-01T01:51:13.756Z,-3.46
2023-03-01T01:53:41.554Z,-3.45
2023-03-01T01:56:12.726Z,-3.49
2023-03-01T01:58:40.413Z,-3.61
2023-03-01T02:01:07.165Z,-3.67
2023-03-01T02:03:38.457Z,-3.71
2023-03-01T02:06:11.911Z,-3.66
2023-03-01T02:08:42.157Z,-3.62
2023-03-01T02:11:10.509Z,-3.62
2023-03-01T02:13:37.252Z,-3.64
2023-03-01T02:16:16.000Z,-3.72
2023-03-01T02:18:44.263Z,-3.67
2023-03-01T02:21:38.792Z,-3.71
2023-03-01T02:24:21.561Z,-3.69
2023-03-01T02:26:51.228Z,-3.78
2023-03-01T02:29:17.621Z,-3.77
2023-03-01T02:31:44.173Z,-3.82
2023-03-01T02:34:15.769Z,-3.92
2023-03-01T02:36:47.331Z,-3.93
2023-03-01T02:39:17.897Z,-4.00
2023-03-01T02:41:48.975Z,-3.94
2023-03-01T02:44:15.412Z,-3.94
2023-03-01T02:47:03.867Z,-3.92
2023-03-01T02:49:37.219Z,-3.95
2023-03-01T02:52:27.490Z,-3.86
2023-03-01T02:55:01.665Z,-3.97
2023-03-01T02:57:29.750Z,-4.03
2023-03-01T02:59:58.369Z,-4.07
2023-03-01T03:02:39.698Z,-4.14
2023-03-01T03:05:18.606Z,-4.08
2023-03-01T03:07:47.655Z,-4.14
2023-03-01T03:10:28.117Z,-4.12
2023-03-01T03:13:00.461Z,-4.12
2023-03-01T03:15:28.117Z,-4.27
2023-03-01T03:17:55.098Z,-4.27
2023-03-01T03:20:24.202Z,-4.26
2023-03-01T03:22:52.559Z,-4.28
2023-03-01T03:25:19.779Z,-4.26
2023-03-01T03:27:48.483Z,-4.29
2023-03-01T03:30:19.907Z,-4.22
2023-03-01T03:32:54.311Z,-4.17
2023-03-01T03:35:23.820Z,-4.17
2023-03-01T03:38:02.614Z,-4.27
2023-03-01T03:40:40.610Z,-4.14
2023-03-01T03:43:13.221Z,-4.20
2023-03-01T03:45:39.597Z,-4.20
2023-03-01T03:48:07.872Z,-4.16
2023-03-01T03:50:34.588Z,-4.13
2023-03-01T03:53:02.246Z,-4.17
2023-03-01T03:55:31.496Z,-4.27
2023-03-01T03:58:02.889Z,-4.38
2023-03-01T04:00:29.720Z,-4.33
2023-03-01T04:02:57.378Z,-4.36
2023-03-01T04:05:24.260Z,-4.37
2023-03-01T04:08:02.253Z,-4.35
2023-03-01T04:10:35.421Z,-4.35
2023-03-01T04:13:02.147Z,-4.40
2023-03-01T04:15:28.788Z,-4.41
2023-03-01T04:17:56.434Z,-4.43
2023-03-01T04:20:26.659Z,-4.48
2023-03-01T04:23:01.122Z,-4.48
2023-03-01T04:25:27.571Z,-4.48
2023-03-01T04:27:53.912Z,-4.49
2023-03-01T04:30:20.375Z,-4.52
2023-03-01T04:32:46.771Z,-4.54
2023-03-01T04:35:13.124Z,-4.54
2023-03-01T04:37:39.506Z,-4.58
2023-03-01T04:40:17.456Z,-4.63
2023-03-01T04:42:44.139Z,-4.68
2023-03-01T04:45:16.637Z,-4.74
2023-03-01T04:47:45.212Z,-4.69
2023-03-01T04:50:13.267Z,-4.64
2023-03-01T04:52:39.697Z,-4.62
2023-03-01T04:55:06.950Z,-4.71
2023-03-01T04:57:33.513Z,-4.74
2023-03-01T04:59:59.946Z,-4.75
2023-03-01T05:02:26.344Z,-4.78
2023-03-01T05:04:52.799Z,-4.82
2023-03-01T05:07:20.371Z,-4.76
2023-03-01T05:09:47.487Z,-4.76
2023-03-01T05:12:14.673Z,-4.67
2023-03-01T05:14:41.823Z,-4.74
2023-03-01T05:17:08.677Z,-4.78
2023-03-01T05:19:35.252Z,-4.86
2023-03-01T05:22:04.874Z,-4.81
2023-03-01T05:24:33.370Z,-4.78
2023-03-01T05:27:00.349Z,-4.87
2023-03-01T05:29:29.720Z,-4.87
2023-03-01T05:32:02.021Z,-4.86
2023-03-01T05:34:31.481Z,-4.94
2023-03-01T05:36:57.957Z,-4.97
2023-03-01T05:39:27.505Z,-4.93
2023-03-01T05:41:58.950Z,-4.94
2023-03-01T05:44:26.264Z,-4.94
2023-03-01T05:46:53.158Z,-4.98
2023-03-01T05:49:19.945Z,-4.97
2023-03-01T05:51:51.449Z,-4.94
2023-03-01T05:54:18.922Z,-4.96
2023-03-01T05:56:45.749Z,-4.99
2023-03-01T05:59:12.711Z,-4.99
2023-03-01T06:01:39.136Z,-5.06
2023-03-01T06:04:06.182Z,-5.03
2023-03-01T06:06:38.436Z,-5.03
2023-03-01T06:09:08.140Z,-5.07
2023-03-01T06:11:35.856Z,-4.53
2023-03-01T06:14:02.254Z,-4.36
2023-03-01T06:16:28.952Z,-4.20
2023-03-01T06:18:55.637Z,-4.40
2023-03-01T06:21:21.981Z,-4.62
2023-03-01T06:23:48.380Z,-4.54
2023-03-01T06:26:14.767Z,-4.60
2023-03-01T06:28:41.120Z,-4.27
2023-03-01T06:31:09.764Z,-4.64
2023-03-01T06:33:38.098Z,-4.44
2023-03-01T06:36:04.864Z,-4.31
2023-03-01T06:38:31.377Z,-4.37
2023-03-01T06:40:57.847Z,-4.35
2023-03-01T06:43:25.005Z,-4.26
2023-03-01T06:45:51.814Z,-4.38
2023-03-01T06:48:18.364Z,-4.50
2023-03-01T06:50:44.889Z,-4.50
2023-03-01T06:53:11.587Z,-4.38
2023-03-01T06:55:38.288Z,-4.46
2023-03-01T06:58:04.697Z,-4.33
2023-03-01T07:00:32.014Z,-4.42
2023-03-01T07:03:03.395Z,-4.37
2023-03-01T07:05:30.741Z,-4.37
2023-03-01T07:07:57.392Z,-4.35
2023-03-01T07:10:24.471Z,-4.38
2023-03-01T07:12:50.837Z,-4.23
2023-03-01T07:15:17.250Z,-4.23
2023-03-01T07:17:45.500Z,-4.21
2023-03-01T07:20:12.446Z,-4.12
2023-03-01T07:22:42.096Z,-4.09
2023-03-01T07:25:08.998Z,-4.04
2023-03-01T07:27:35.405Z,-3.93
2023-03-01T07:30:01.934Z,-3.94
2023-03-01T07:32:28.371Z,-3.53
2023-03-01T07:34:54.733Z,-3.79
2023-03-01T07:37:21.146Z,-3.85
2023-03-01T07:39:47.507Z,-3.76
2023-03-01T07:42:13.849Z,-3.69
2023-03-01T07:44:40.330Z,-3.62
2023-03-01T07:47:06.688Z,-3.57
2023-03-01T07:49:33.030Z,-3.55
2023-03-01T07:51:59.437Z,-3.46
2023-03-01T07:54:27.250Z,-3.40
2023-03-01T07:56:55.753Z,-3.22
2023-03-01T07:59:22.183Z,-3.20
2023-03-01T08:01:48.538Z,-3.17
2023-03-01T08:04:14.912Z,-3.12
2023-03-01T08:06:41.269Z,-3.15
2023-03-01T08:09:08.845Z,-3.10
2023-03-01T08:11:38.262Z,-3.05
2023-03-01T08:14:04.797Z,-2.84
2023-03-01T08:16:31.679Z,-2.91
2023-03-01T08:19:01.560Z,-2.92
2023-03-01T08:21:27.948Z,-2.84
2023-03-01T08:23:54.316Z,-2.85
2023-03-01T08:26:22.138Z,-2.78
2023-03-01T08:28:50.200Z,-2.47
2023-03-01T08:31:21.018Z,-2.52
2023-03-01T08:33:55.977Z,-2.54
2023-03-01T08:36:24.106Z,-2.57
2023-03-01T08:38:50.648Z,-2.41
2023-03-01T08:41:17.179Z,-2.39
2023-03-01T08:43:43.596Z,-2.31
2023-03-01T08:46:10.638Z,-2.26
2023-03-01T08:48:37.132Z,-2.39
2023-03-01T08:51:19.022Z,-2.34
2023-03-01T08:53:45.885Z,-2.15
2023-03-01T08:56:15.104Z,-2.21
2023-03-01T08:58:47.801Z,-2.23
2023-03-01T09:01:16.782Z,-2.17
2023-03-01T09:03:43.644Z,-2.15
2023-03-01T09:06:10.754Z,-2.15
2023-03-01T09:08:39.435Z,-2.07
2023-03-01T09:11:08.094Z,-1.95
2023-03-01T09:13:34.792Z,-1.99
2023-03-01T09:16:06.234Z,-1.87
2023-03-01T09:18:34.388Z,-1.81
2023-03-01T09:21:08.038Z,-1.81
2023-03-01T09:23:42.437Z,-1.79
2023-03-01T09:26:22.078Z,-1.67
2023-03-01T09:28:50.576Z,-1.70
2023-03-01T09:31:18.626Z,-1.69
2023-03-01T09:33:48.625Z,-1.61
2023-03-01T09:36:19.319Z,-1.56
2023-03-01T09:38:46.312Z,-1.47
2023-03-01T09:41:18.398Z,-1.38
2023-03-01T09:43:56.468Z,-1.17
2023-03-01T09:46:26.233Z,-1.15
2023-03-01T09:48:58.265Z,-1.04
2023-03-01T09:51:31.505Z,-1.03
2023-03-01T09:53:59.602Z,-1.01
2023-03-01T09:56:37.685Z,-0.92
2023-03-01T09:59:22.200Z,-0.84
2023-03-01T10:02:00.505Z,-0.85
2023-03-01T10:04:38.006Z,-0.86
2023-03-01T10:07:10.500Z,-0.80
2023-03-01T10:09:43.101Z,-0.47
2023-03-01T10:12:19.680Z,-0.46
2023-03-01T10:14:56.786Z,-0.51
2023-03-01T10:17:34.332Z,-0.45
2023-03-01T10:20:17.616Z,-0.40
2023-03-01T10:22:47.519Z,-0.41
2023-03-01T10:25:16.085Z,-0.31
2023-03-01T10:27:47.656Z,-0.30
2023-03-01T10:30:25.380Z,-0.24
2023-03-01T10:32:54.776Z,-0.17
2023-03-01T10:35:28.982Z,-0.18
2023-03-01T10:38:06.699Z,-0.18
2023-03-01T10:40:35.386Z,-0.05
2023-03-01T10:43:04.650Z,0.01
2023-03-01T10:45:30.976Z,0.20
2023-03-01T10:48:09.432Z,0.23
2023-03-01T10:50:37.339Z,0.29
2023-03-01T10:53:05.706Z,0.34
2023-03-01T10:55:39.306Z,0.31
2023-03-01T10:58:20.078Z,0.30
2023-03-01T11:00:53.808Z,0.34
2023-03-01T11:03:25.262Z,0.39
2023-03-01T11:06:02.809Z,0.45
2023-03-01T11:08:37.741Z,0.44
2023-03-01T11:11:16.835Z,0.53
2023-03-01T11:14:05.227Z,0.52
2023-03-01T11:16:39.222Z,0.63
2023-03-01T11:19:11.316Z,0.67
2023-03-01T11:21:42.012Z,0.73
2023-03-01T11:24:14.065Z,1.06
2023-03-01T11:26:44.149Z,1.16
2023-03-01T11:29:28.549Z,1.41
2023-03-01T11:32:00.228Z,1.67
2023-03-01T11:34:38.899Z,1.62
2023-03-01T11:37:18.134Z,1.75
2023-03-01T11:40:04.634Z,1.68
2023-03-01T11:42:32.143Z,1.66
2023-03-01T11:45:02.950Z,1.68
2023-03-01T11:47:53.501Z,1.70
2023-03-01T11:50:36.500Z,1.75
2023-03-01T11:53:17.356Z,1.77
2023-03-01T11:55:53.602Z,1.76
2023-03-01T11:58:41.085Z,1.86
2023-03-01T12:01:19.250Z,1.87
2023-03-01T12:04:23.460Z,1.85
2023-03-01T12:07:10.372Z,1.93
2023-03-01T12:10:01.100Z,2.12
2023-03-01T12:12:46.073Z,2.16
2023-03-01T12:15:56.776Z,2.19
2023-03-01T12:18:45.760Z,2.23
2023-03-01T12:21:21.394Z,2.17
2023-03-01T12:24:17.055Z,2.15
2023-03-01T12:26:53.267Z,2.16
2023-03-01T12:29:35.416Z,2.23
2023-03-01T12:32:01.859Z,2.25
2023-03-01T12:34:44.369Z,2.31
2023-03-01T12:37:25.852Z,2.29
2023-03-01T12:40:17.436Z,2.23
2023-03-01T12:43:05.052Z,2.20
2023-03-01T12:45:58.465Z,2.15
2023-03-01T12:48:36.300Z,2.28
2023-03-01T12:51:08.426Z,2.17
2023-03-01T12:53:45.836Z,2.25
2023-03-01T12:56:14.938Z,2.26
2023-03-01T12:58:50.056Z,2.27
2023-03-01T13:01:31.965Z,2.27
2023-03-01T13:04:15.594Z,2.27
2023-03-01T13:06:57.258Z,2.30
2023-03-01T13:09:38.403Z,2.36
2023-03-01T13:12:25.017Z,2.38
2023-03-01T13:14:55.135Z,2.41
2023-03-01T13:17:33.549Z,2.42
2023-03-01T13:20:00.231Z,2.34
2023-03-01T13:22:31.043Z,2.40
2023-03-01T13:25:14.898Z,2.40
2023-03-01T13:27:41.856Z,2.42
2023-03-01T13:30:34.250Z,2.37
2023-03-01T13:33:28.704Z,2.40
2023-03-01T13:35:56.825Z,2.40
2023-03-01T13:38:58.337Z,2.49
2023-03-01T13:41:50.410Z,2.60
2023-03-01T13:44:29.955Z,2.69
2023-03-01T13:47:03.869Z,2.76
2023-03-01T13:49:46.600Z,2.81
2023-03-01T13:52:25.131Z,2.86
2023-03-01T13:54:51.505Z,2.94
2023-03-01T13:57:35.081Z,3.05
2023-03-01T14:00:02.930Z,3.23
2023-03-01T14:02:29.446Z,3.23
2023-03-01T14:05:00.908Z,3.27
2023-03-01T14:07:31.572Z,3.40
2023-03-01T14:10:01.985Z,3.43
2023-03-01T14:12:50.054Z,3.56
2023-03-01T14:15:48.882Z,3.63
2023-03-01T14:18:23.210Z,3.75
2023-03-01T14:20:53.646Z,3.81
2023-03-01T14:23:23.064Z,3.95
2023-03-01T14:25:52.202Z,3.96
2023-03-01T14:28:22.487Z,3.97
2023-03-01T14:30:52.127Z,4.05
2023-03-01T14:33:26.800Z,4.08
2023-03-01T14:36:02.382Z,4.10
2023-03-01T14:38:39.606Z,4.25
2023-03-01T14:41:19.824Z,4.30
2023-03-01T14:43:58.949Z,4.37
2023-03-01T14:46:37.824Z,4.44
2023-03-01T14:49:10.883Z,4.52
2023-03-01T14:51:39.999Z,4.56
2023-03-01T14:54:23.160Z,4.61
2023-03-01T14:56:49.852Z,4.68
2023-03-01T14:59:16.550Z,4.73
2023-03-01T15:01:44.160Z,4.80
2023-03-01T15:04:14.634Z,4.93
2023-03-01T15:06:42.266Z,4.94
2023-03-01T15:09:16.033Z,5.09
2023-03-01T15:14:40.159Z,5.11
2023-03-01T15:17:21.757Z,5.12
2023-03-01T15:19:48.876Z,5.18
2023-03-01T15:22:17.294Z,5.24
2023-03-01T15:24:51.257Z,5.19
2023-03-01T15:27:21.251Z,5.25
2023-03-01T15:29:58.613Z,5.27
2023-03-01T15:32:27.363Z,5.50
2023-03-01T15:34:53.755Z,5.43
2023-03-01T15:37:39.069Z,5.58
2023-03-01T15:40:20.163Z,5.48
2023-03-01T15:42:46.548Z,5.49
2023-03-01T15:45:24.395Z,5.50
2023-03-01T15:47:53.897Z,5.44
2023-03-01T15:50:24.211Z,5.45
2023-03-01T15:52:51.851Z,5.34
2023-03-01T15:55:24.159Z,5.35
2023-03-01T15:57:51.228Z,5.33
2023-03-01T16:00:18.658Z,5.30
2023-03-01T16:02:45.491Z,5.23
2023-03-01T16:05:19.813Z,5.07
2023-03-01T16:07:46.343Z,4.97
2023-03-01T16:10:13.417Z,4.75
2023-03-01T16:12:40.143Z,4.57
2023-03-01T16:15:17.115Z,4.44
2023-03-01T16:17:43.456Z,4.29
2023-03-01T16:20:12.980Z,4.17
2023-03-01T16:22:41.837Z,4.05
2023-03-01T16:25:09.960Z,3.95
2023-03-01T16:27:36.407Z,3.86
2023-03-01T16:30:03.389Z,3.76
2023-03-01T16:32:29.815Z,3.66
2023-03-01T16:34:56.445Z,3.59
2023-03-01T16:37:22.911Z,3.50
2023-03-01T16:39:52.360Z,3.42
2023-03-01T16:42:18.923Z,3.35
2023-03-01T16:44:45.498Z,3.29
2023-03-01T16:47:11.850Z,3.22
2023-03-01T16:49:38.200Z,3.15
2023-03-01T16:52:04.557Z,3.07
2023-03-01T16:54:30.943Z,3.00
2023-03-01T16:56:57.299Z,2.95
2023-03-01T16:59:23.693Z,2.90
2023-03-01T17:01:50.067Z,2.86
2023-03-01T17:04:16.992Z,2.81
2023-03-01T17:06:43.824Z,2.78
2023-03-01T17:09:10.511Z,2.75
2023-03-01T17:11:36.868Z,2.71
2023-03-01T17:14:03.249Z,2.67
2023-03-01T17:16:29.724Z,2.63
2023-03-01T17:18:56.135Z,2.64
2023-03-01T17:21:22.569Z,2.63
2023-03-01T17:23:50.301Z,2.59
2023-03-01T17:26:17.117Z,2.54
2023-03-01T17:28:43.884Z,2.50
2023-03-01T17:31:10.353Z,2.47
2023-03-01T17:33:37.107Z,2.45
2023-03-01T17:36:03.839Z,2.42
2023-03-01T17:38:30.248Z,2.38
2023-03-01T17:41:00.334Z,2.36
2023-03-01T17:43:27.568Z,2.33
2023-03-01T17:45:54.634Z,2.28
2023-03-01T17:48:21.209Z,2.26
2023-03-01T17:50:47.630Z,2.22
2023-03-01T17:53:14.234Z,2.19
2023-03-01T17:55:45.239Z,2.15
2023-03-01T17:58:15.546Z,2.12
2023-03-01T18:00:41.981Z,2.12
2023-03-01T18:03:08.454Z,2.12
2023-03-01T18:05:37.591Z,2.14
2023-03-01T18:08:04.306Z,2.18
2023-03-01T18:10:32.000Z,2.50
2023-03-01T18:12:58.374Z,2.56
2023-03-01T18:15:24.726Z,2.37
2023-03-01T18:17:51.127Z,2.32
2023-03-01T18:20:18.917Z,2.20
2023-03-01T18:22:45.599Z,2.12
2023-03-01T18:25:12.256Z,2.04
2023-03-01T18:27:38.950Z,1.97
2023-03-01T18:30:07.821Z,1.87
2023-03-01T18:32:34.248Z,1.77
2023-03-01T18:35:00.647Z,1.70
2023-03-01T18:37:27.040Z,1.66
2023-03-01T18:39:54.223Z,1.62
2023-03-01T18:42:20.794Z,1.58
2023-03-01T18:44:47.922Z,1.54
2023-03-01T18:47:16.116Z,1.52
2023-03-01T18:49:43.844Z,1.53
2023-03-01T18:52:10.428Z,1.51
2023-03-01T18:54:36.814Z,1.44
2023-03-01T18:57:03.528Z,1.39
2023-03-01T18:59:30.696Z,1.35
2023-03-01T19:01:57.141Z,1.34
2023-03-01T19:04:23.607Z,1.38
2023-03-01T19:06:50.226Z,1.34
2023-03-01T19:09:18.088Z,1.32
2023-03-01T19:11:44.473Z,1.36
2023-03-01T19:14:12.013Z,1.33
2023-03-01T19:16:38.379Z,1.25
2023-03-01T19:19:08.367Z,1.20
2023-03-01T19:21:35.157Z,1.17
2023-03-01T19:24:02.665Z,1.14
2023-03-01T19:26:30.258Z,1.06
2023-03-01T19:28:57.319Z,1.01
2023-03-01T19:31:26.789Z,0.96
2023-03-01T19:33:57.041Z,0.95
2023-03-01T19:36:33.277Z,0.87
2023-03-01T19:39:01.355Z,0.90
2023-03-01T19:41:27.874Z,0.90
2023-03-01T19:43:54.625Z,0.83
2023-03-01T19:46:21.466Z,0.75
2023-03-01T19:48:49.897Z,0.68
2023-03-01T19:51:16.521Z,0.63
2023-03-01T19:53:42.929Z,0.58
2023-03-01T19:56:09.854Z,0.54
2023-03-01T19:58:36.442Z,0.53
2023-03-01T20:01:02.849Z,0.50
2023-03-01T20:03:32.819Z,0.49
2023-03-01T20:06:02.487Z,0.55
2023-03-01T20:08:31.580Z,0.55
2023-03-01T20:11:10.258Z,0.52
2023-03-01T20:13:37.155Z,0.47
2023-03-01T20:16:04.392Z,0.43
2023-03-01T20:18:31.283Z,0.38
2023-03-01T20:20:59.363Z,0.37
2023-03-01T20:23:26.094Z,0.38
2023-03-01T20:25:52.582Z,0.39
2023-03-01T20:28:19.928Z,0.37
2023-03-01T20:30:46.287Z,0.37
2023-03-01T20:33:12.649Z,0.34
2023-03-01T20:35:43.182Z,0.27
2023-03-01T20:38:09.783Z,0.20
2023-03-01T20:40:37.229Z,0.11
2023-03-01T20:43:03.817Z,0.02
2023-03-01T20:45:30.397Z,0.01
2023-03-01T20:47:56.774Z,0.04
2023-03-01T20:50:23.150Z,0.04
2023-03-01T20:52:49.635Z,0.08
2023-03-01T20:55:16.221Z,0.12
2023-03-01T20:57:42.592Z,0.11
2023-03-01T21:00:10.004Z,0.06
2023-03-01T21:02:36.459Z,-0.02
2023-03-01T21:05:02.914Z,-0.02
2023-03-01T21:07:29.274Z,-0.03
2023-03-01T21:09:55.731Z,-0.01
2023-03-01T21:12:22.181Z,0.10
2023-03-01T21:14:48.843Z,0.09
2023-03-01T21:17:17.190Z,-0.08
2023-03-01T21:19:44.954Z,-0.14
2023-03-01T21:22:14.235Z,-0.18
2023-03-01T21:24:41.604Z,-0.16
2023-03-01T21:27:09.671Z,-0.13
2023-03-01T21:29:44.838Z,-0.29
2023-03-01T21:32:13.971Z,-0.37
2023-03-01T21:34:41.150Z,-0.40
2023-03-01T21:37:10.362Z,-0.48
2023-03-01T21:39:37.471Z,-0.56
2023-03-01T21:42:06.123Z,-0.56
2023-03-01T21:44:32.934Z,-0.58
2023-03-01T21:46:59.366Z,-0.63
2023-03-01T21:49:26.863Z,-0.64
2023-03-01T21:51:53.455Z,-0.66
2023-03-01T21:54:20.809Z,-0.70
2023-03-01T21:56:48.866Z,-0.70
2023-03-01T21:59:23.091Z,-0.73
2023-03-01T22:01:51.427Z,-0.75
2023-03-01T22:04:19.954Z,-0.78
2023-03-01T22:06:46.970Z,-0.82
2023-03-01T22:09:18.094Z,-0.85
2023-03-01T22:11:50.496Z,-0.88
2023-03-01T22:14:18.741Z,-0.90
2023-03-01T22:16:47.495Z,-0.88
2023-03-01T22:19:16.011Z,-0.97
2023-03-01T22:21:44.068Z,-0.99
2023-03-01T22:24:12.078Z,-0.97
2023-03-01T22:26:40.932Z,-0.99
2023-03-01T22:29:13.402Z,-1.00
2023-03-01T22:31:40.230Z,-1.08
2023-03-01T22:34:06.962Z,-1.11
2023-03-01T22:36:34.060Z,-1.14
2023-03-01T22:39:01.808Z,-1.17
2023-03-01T22:41:30.103Z,-1.21
2023-03-01T22:43:56.659Z,-1.21
2023-03-01T22:46:27.368Z,-1.24
2023-03-01T22:48:54.059Z,-1.27
2023-03-01T22:51:24.571Z,-1.30
2023-03-01T22:53:51.380Z,-1.30
2023-03-01T22:56:24.383Z,-1.31
2023-03-01T22:58:50.961Z,-1.28
2023-03-01T23:01:20.156Z,-1.31
2023-03-01T23:03:47.212Z,-1.39
2023-03-01T23:06:17.488Z,-1.41
2023-03-01T23:08:44.731Z,-1.43
2023-03-01T23:11:15.144Z,-1.43
2023-03-01T23:13:42.278Z,-1.41
2023-03-01T23:16:10.388Z,-1.44
2023-03-01T23:18:37.536Z,-1.49
2023-03-01T23:21:15.951Z,-1.48
2023-03-01T23:23:43.199Z,-1.53
2023-03-01T23:26:09.842Z,-1.56
2023-03-01T23:28:40.705Z,-1.55
2023-03-01T23:31:10.330Z,-1.61
2023-03-01T23:33:39.950Z,-1.65
2023-03-01T23:36:21.795Z,-1.66
2023-03-01T23:38:50.743Z,-1.72
2023-03-01T23:41:22.422Z,-1.74
2023-03-01T23:43:51.463Z,-1.74
2023-03-01T23:46:20.308Z,-1.74
2023-03-01T23:48:46.921Z,-1.74
2023-03-01T23:51:14.893Z,-1.79
2023-03-01T23:53:54.366Z,-1.80
2023-03-01T23:56:38.764Z,-1.82
2023-03-01T23:59:09.148Z,-1.84
